createdAt,value
2018-05-21T00:02:01.845Z,18.10
2018-05-21T00:04:29.231Z,18.05
2018-05-21T00:06:56.611Z,18.10
2018-05-21T00:09:24.007Z,18.08
2018-05-21T00:11:51.592Z,18.11
2018-05-21T00:14:18.952Z,18.08
2018-05-21T00:16:46.343Z,18.09
2018-05-21T00:19:13.745Z,18.17
2018-05-21T00:21:41.134Z,18.06
2018-05-21T00:24:08.511Z,18.09
2018-05-21T00:26:35.909Z,18.10
2018-05-21T00:29:03.284Z,18.08
2018-05-21T00:31:30.672Z,18.07
2018-05-21T00:33:58.060Z,18.07
2018-05-21T00:36:25.443Z,18.08
2018-05-21T00:38:52.823Z,18.08
2018-05-21T00:41:20.259Z,18.04
2018-05-21T00:43:47.643Z,18.03
2018-05-21T00:48:48.884Z,17.98
2018-05-21T00:51:16.269Z,18.02
2018-05-21T00:53:43.651Z,18.04
2018-05-21T00:56:11.043Z,18.03
2018-05-21T00:58:38.431Z,17.98
2018-05-21T01:01:05.822Z,18.01
2018-05-21T01:03:33.201Z,17.96
2018-05-21T01:06:00.582Z,17.97
2018-05-21T01:08:27.969Z,17.89
2018-05-21T01:10:55.347Z,17.93
2018-05-21T01:13:22.747Z,17.97
2018-05-21T01:15:50.198Z,17.83
2018-05-21T01:18:17.540Z,17.92
2018-05-21T01:20:44.927Z,17.93
2018-05-21T01:23:12.295Z,17.86
2018-05-21T01:25:39.704Z,17.86
2018-05-21T01:28:07.103Z,17.82
2018-05-21T01:30:34.484Z,17.85
2018-05-21T01:33:01.925Z,17.78
2018-05-21T01:35:29.288Z,17.79
2018-05-21T01:37:56.677Z,17.77
2018-05-21T01:40:24.063Z,17.71
2018-05-21T01:42:51.457Z,17.73
2018-05-21T01:45:18.837Z,17.82
2018-05-21T01:47:46.252Z,17.76
2018-05-21T01:50:13.679Z,17.74
2018-05-21T01:52:41.069Z,17.75
2018-05-21T01:55:08.452Z,17.74
2018-05-21T01:57:35.860Z,17.72
2018-05-21T02:00:03.244Z,17.60
2018-05-21T02:02:30.721Z,17.67
2018-05-21T02:04:58.104Z,17.58
2018-05-21T02:07:25.488Z,17.50
2018-05-21T02:09:52.885Z,17.51
2018-05-21T02:12:20.259Z,17.50
2018-05-21T02:14:47.654Z,17.49
2018-05-21T02:17:15.036Z,17.50
2018-05-21T02:19:42.425Z,17.47
2018-05-21T02:22:09.804Z,17.48
2018-05-21T02:24:37.211Z,17.45
2018-05-21T02:27:04.702Z,17.51
2018-05-21T02:29:32.025Z,17.41
2018-05-21T02:31:59.408Z,17.37
2018-05-21T02:34:26.806Z,17.43
2018-05-21T02:36:54.196Z,17.39
2018-05-21T02:39:21.671Z,17.37
2018-05-21T02:41:49.037Z,17.34
2018-05-21T02:44:16.435Z,17.36
2018-05-21T02:46:43.808Z,17.38
2018-05-21T02:49:11.204Z,17.35
2018-05-21T02:51:38.585Z,17.28
2018-05-21T02:54:05.989Z,17.25
2018-05-21T02:56:33.392Z,17.19
2018-05-21T02:59:00.788Z,17.20
2018-05-21T03:01:28.199Z,17.12
2018-05-21T03:03:55.826Z,17.14
2018-05-21T03:06:23.205Z,17.13
2018-05-21T03:08:50.603Z,17.07
2018-05-21T03:11:17.983Z,17.08
2018-05-21T03:13:45.377Z,17.02
2018-05-21T03:16:12.788Z,16.97
2018-05-21T03:18:40.190Z,16.97
2018-05-21T03:21:07.577Z,16.95
2018-05-21T03:23:34.952Z,16.95
2018-05-21T03:26:02.352Z,16.91
2018-05-21T03:28:29.732Z,16.96
2018-05-21T03:30:57.121Z,16.96
2018-05-21T03:33:24.499Z,16.89
2018-05-21T03:35:51.884Z,16.82
2018-05-21T03:38:19.270Z,16.76
2018-05-21T03:40:46.667Z,16.76
2018-05-21T03:43:14.041Z,16.71
2018-05-21T03:45:41.431Z,16.73
2018-05-21T03:48:08.821Z,16.71
2018-05-21T03:50:36.215Z,16.73
2018-05-21T03:53:03.588Z,16.65
2018-05-21T03:55:31.014Z,16.64
2018-05-21T03:57:58.399Z,16.60
2018-05-21T04:00:37.413Z,16.60
2018-05-21T04:03:15.348Z,16.59
2018-05-21T04:05:42.741Z,16.56
2018-05-21T04:08:10.116Z,16.53
2018-05-21T04:10:37.504Z,16.55
2018-05-21T04:13:04.896Z,16.53
2018-05-21T04:15:32.300Z,16.50
2018-05-21T04:17:59.685Z,16.49
2018-05-21T04:20:27.084Z,16.54
2018-05-21T04:22:54.467Z,16.49
2018-05-21T04:25:21.851Z,16.45
2018-05-21T04:27:49.232Z,16.56
2018-05-21T04:30:16.858Z,16.56
2018-05-21T04:32:44.242Z,16.51
2018-05-21T04:35:11.622Z,16.48
2018-05-21T04:37:39.011Z,16.49
2018-05-21T04:40:06.632Z,16.50
2018-05-21T04:42:34.691Z,16.51
2018-05-21T04:45:04.872Z,16.59
2018-05-21T04:47:41.294Z,16.62
2018-05-21T04:50:09.541Z,16.65
2018-05-21T04:52:38.011Z,16.63
2018-05-21T04:55:05.795Z,16.68
2018-05-21T04:57:34.095Z,16.70
2018-05-21T05:00:01.968Z,16.71
2018-05-21T05:02:31.446Z,16.68
2018-05-21T05:05:01.490Z,16.74
2018-05-21T05:07:29.788Z,16.79
2018-05-21T05:09:59.250Z,16.90
2018-05-21T05:12:26.631Z,16.90
2018-05-21T05:14:54.016Z,16.96
2018-05-21T05:17:21.395Z,16.92
2018-05-21T05:19:48.773Z,16.97
2018-05-21T05:22:16.179Z,16.99
2018-05-21T05:24:43.568Z,17.01
2018-05-21T05:27:11.008Z,17.05
2018-05-21T05:29:38.831Z,17.16
2018-05-21T05:32:07.308Z,17.27
2018-05-21T05:34:35.466Z,17.37
2018-05-21T05:37:05.609Z,17.43
2018-05-21T05:42:12.463Z,17.77
2018-05-21T05:44:42.459Z,17.85
2018-05-21T05:47:11.748Z,17.95
2018-05-21T05:49:39.697Z,18.01
2018-05-21T05:52:08.347Z,18.09
2018-05-21T05:54:36.472Z,18.11
2018-05-21T05:57:09.010Z,18.25
2018-05-21T05:59:37.370Z,18.25
2018-05-21T06:02:07.051Z,18.36
2018-05-21T06:04:38.090Z,18.39
2018-05-21T06:07:08.017Z,18.45
2018-05-21T06:09:36.957Z,18.53
2018-05-21T06:12:07.635Z,18.58
2018-05-21T06:14:35.705Z,18.63
2018-05-21T06:17:04.036Z,18.71
2018-05-21T06:19:33.293Z,18.85
2018-05-21T06:22:00.841Z,18.90
2018-05-21T06:24:28.788Z,18.97
2018-05-21T06:26:56.897Z,19.17
2018-05-21T06:29:28.468Z,19.29
2018-05-21T06:31:57.559Z,19.32
2018-05-21T06:34:25.694Z,19.40
2018-05-21T06:36:53.116Z,19.30
2018-05-21T06:39:24.168Z,19.32
2018-05-21T06:41:52.232Z,19.28
2018-05-21T06:44:20.131Z,19.28
2018-05-21T06:46:54.722Z,19.40
2018-05-21T06:49:24.773Z,19.52
2018-05-21T06:52:07.425Z,19.49
2018-05-21T06:54:37.351Z,19.55
2018-05-21T06:57:09.249Z,19.49
2018-05-21T06:59:41.253Z,19.58
2018-05-21T07:02:08.849Z,19.66
2018-05-21T07:04:36.301Z,19.75
2018-05-21T07:07:04.975Z,19.78
2018-05-21T07:09:35.447Z,19.87
2018-05-21T07:12:02.944Z,19.91
2018-05-21T07:14:35.481Z,19.92
2018-05-21T07:17:05.661Z,20.00
2018-05-21T07:19:34.862Z,20.11
2018-05-21T07:22:03.502Z,20.08
2018-05-21T07:24:31.893Z,20.10
2018-05-21T07:27:01.128Z,20.16
2018-05-21T07:29:31.601Z,20.19
2018-05-21T07:32:02.443Z,20.34
2018-05-21T07:34:35.861Z,20.40
2018-05-21T07:37:06.418Z,20.47
2018-05-21T07:39:44.666Z,20.46
2018-05-21T07:42:12.142Z,20.65
2018-05-21T07:44:39.531Z,20.63
2018-05-21T07:47:06.984Z,20.76
2018-05-21T07:49:34.395Z,20.79
2018-05-21T07:52:01.788Z,20.92
2018-05-21T07:54:29.175Z,20.98
2018-05-21T07:56:56.605Z,21.23
2018-05-21T07:59:23.963Z,21.26
2018-05-21T08:01:51.957Z,21.38
2018-05-21T08:04:20.177Z,21.46
2018-05-21T08:06:47.575Z,21.53
2018-05-21T08:09:14.983Z,21.54
2018-05-21T08:11:42.373Z,21.62
2018-05-21T08:14:09.755Z,21.71
2018-05-21T08:16:37.154Z,21.90
2018-05-21T08:19:04.538Z,21.96
2018-05-21T08:21:31.935Z,22.06
2018-05-21T08:23:59.316Z,22.08
2018-05-21T08:26:26.714Z,22.08
2018-05-21T08:28:54.107Z,22.06
2018-05-21T08:31:21.489Z,22.22
2018-05-21T08:33:49.015Z,22.36
2018-05-21T08:36:16.414Z,22.47
2018-05-21T08:38:43.805Z,22.31
2018-05-21T08:41:11.187Z,22.55
2018-05-21T08:43:38.596Z,22.69
2018-05-21T08:46:05.967Z,22.85
2018-05-21T08:48:33.439Z,22.77
2018-05-21T08:51:00.733Z,22.68
2018-05-21T08:53:28.131Z,22.79
2018-05-21T08:55:55.538Z,22.75
2018-05-21T08:58:22.932Z,22.72
2018-05-21T09:00:50.355Z,22.79
2018-05-21T09:03:17.751Z,22.93
2018-05-21T09:05:45.427Z,22.78
2018-05-21T09:08:12.743Z,22.91
2018-05-21T09:10:40.126Z,22.86
2018-05-21T09:13:07.519Z,23.02
2018-05-21T09:15:34.925Z,23.07
2018-05-21T09:18:02.358Z,23.07
2018-05-21T09:20:29.779Z,23.06
2018-05-21T09:22:57.164Z,23.15
2018-05-21T09:25:24.573Z,23.32
2018-05-21T09:27:51.978Z,23.40
2018-05-21T09:30:19.488Z,23.35
2018-05-21T09:32:46.884Z,23.38
2018-05-21T09:35:14.272Z,23.35
2018-05-21T09:37:41.653Z,23.53
2018-05-21T09:40:09.060Z,23.61
2018-05-21T09:42:36.440Z,23.68
2018-05-21T09:45:03.827Z,23.67
2018-05-21T09:47:31.209Z,23.80
2018-05-21T09:49:58.595Z,23.81
2018-05-21T09:52:26.003Z,23.79
2018-05-21T09:54:53.396Z,23.86
2018-05-21T09:57:20.775Z,23.91
2018-05-21T09:59:48.183Z,23.89
2018-05-21T10:02:15.635Z,23.76
2018-05-21T10:04:43.017Z,23.94
2018-05-21T10:07:10.400Z,24.02
2018-05-21T10:09:37.861Z,24.04
2018-05-21T10:12:05.379Z,24.10
2018-05-21T10:14:32.697Z,24.13
2018-05-21T10:17:00.081Z,24.13
2018-05-21T10:19:27.559Z,24.22
2018-05-21T10:21:54.900Z,24.23
2018-05-21T10:24:22.401Z,24.20
2018-05-21T10:26:49.792Z,24.33
2018-05-21T10:29:17.181Z,24.43
2018-05-21T10:31:44.569Z,24.47
2018-05-21T10:34:11.968Z,24.56
2018-05-21T10:36:39.365Z,24.69
2018-05-21T10:39:06.754Z,24.72
2018-05-21T10:41:34.137Z,24.69
2018-05-21T10:44:01.548Z,24.67
2018-05-21T10:46:28.969Z,24.79
2018-05-21T10:48:56.408Z,24.76
2018-05-21T10:51:23.867Z,24.82
2018-05-21T10:53:51.188Z,24.89
2018-05-21T10:56:18.660Z,24.95
2018-05-21T10:58:45.956Z,25.08
2018-05-21T11:01:13.360Z,25.15
2018-05-21T11:03:40.751Z,25.34
2018-05-21T11:06:08.146Z,25.34
2018-05-21T11:08:35.533Z,25.21
2018-05-21T11:11:02.920Z,25.18
2018-05-21T11:13:30.335Z,25.37
2018-05-21T11:15:57.724Z,25.33
2018-05-21T11:18:25.627Z,25.42
2018-05-21T11:20:53.004Z,25.46
2018-05-21T11:23:20.402Z,25.53
2018-05-21T11:25:47.827Z,25.66
2018-05-21T11:28:15.247Z,25.81
2018-05-21T11:30:43.440Z,25.84
2018-05-21T11:33:10.833Z,25.84
2018-05-21T11:35:38.223Z,25.70
2018-05-21T11:38:05.630Z,25.70
2018-05-21T11:40:33.862Z,25.93
2018-05-21T11:43:01.575Z,25.83
2018-05-21T11:45:28.960Z,25.80
2018-05-21T11:47:56.343Z,25.82
2018-05-21T11:50:23.778Z,25.67
2018-05-21T11:52:51.133Z,25.49
2018-05-21T11:55:18.516Z,25.61
2018-05-21T11:57:45.903Z,25.85
2018-05-21T12:00:13.296Z,26.08
2018-05-21T12:02:40.702Z,26.30
2018-05-21T12:05:08.080Z,26.03
2018-05-21T12:07:35.533Z,26.10
2018-05-21T12:10:02.853Z,26.05
2018-05-21T12:12:30.234Z,26.02
2018-05-21T12:14:57.637Z,26.10
2018-05-21T12:17:25.028Z,26.21
2018-05-21T12:19:52.431Z,26.28
2018-05-21T12:22:19.919Z,26.05
2018-05-21T12:24:47.222Z,26.09
2018-05-21T12:27:14.601Z,26.00
2018-05-21T12:29:41.997Z,26.08
2018-05-21T12:32:09.385Z,26.09
2018-05-21T12:34:36.771Z,26.09
2018-05-21T12:37:04.161Z,26.13
2018-05-21T12:39:31.557Z,26.18
2018-05-21T12:41:58.936Z,26.34
2018-05-21T12:44:26.331Z,26.13
2018-05-21T12:46:53.788Z,26.35
2018-05-21T12:49:21.119Z,26.31
2018-05-21T12:51:48.534Z,26.28
2018-05-21T12:54:15.920Z,26.48
2018-05-21T12:56:43.313Z,26.55
2018-05-21T12:59:10.708Z,26.52
2018-05-21T13:01:38.111Z,26.55
2018-05-21T13:04:05.598Z,26.57
2018-05-21T13:06:32.988Z,26.66
2018-05-21T13:09:00.381Z,26.53
2018-05-21T13:11:28.990Z,26.74
2018-05-21T13:13:56.387Z,26.70
2018-05-21T13:16:23.772Z,26.73
2018-05-21T13:18:51.500Z,26.77
2018-05-21T13:21:18.883Z,26.72
2018-05-21T13:23:46.294Z,26.51
2018-05-21T13:26:13.684Z,26.80
2018-05-21T13:28:41.107Z,26.93
2018-05-21T13:31:08.514Z,26.89
2018-05-21T13:33:35.913Z,26.93
2018-05-21T13:36:03.380Z,26.97
2018-05-21T13:41:04.479Z,27.19
2018-05-21T13:43:31.867Z,27.28
2018-05-21T13:45:59.282Z,27.31
2018-05-21T13:48:26.671Z,27.38
2018-05-21T13:50:54.063Z,27.37
2018-05-21T13:53:21.444Z,27.28
2018-05-21T13:55:48.833Z,27.42
2018-05-21T13:58:16.206Z,27.51
2018-05-21T14:00:43.595Z,27.47
2018-05-21T14:03:11.000Z,27.16
2018-05-21T14:05:38.442Z,27.15
2018-05-21T14:08:05.783Z,27.46
2018-05-21T14:10:33.171Z,27.66
2018-05-21T14:13:00.552Z,27.68
2018-05-21T14:15:27.946Z,27.63
2018-05-21T14:17:55.336Z,27.44
2018-05-21T14:20:22.728Z,27.52
2018-05-21T14:22:50.120Z,27.66
2018-05-21T14:25:17.576Z,27.65
2018-05-21T14:27:44.891Z,27.48
2018-05-21T14:30:12.277Z,27.32
2018-05-21T14:32:39.661Z,27.28
2018-05-21T14:35:07.238Z,27.19
2018-05-21T14:37:34.602Z,27.12
2018-05-21T14:40:01.998Z,27.19
2018-05-21T14:42:29.371Z,27.07
2018-05-21T14:44:56.760Z,27.11
2018-05-21T14:47:24.143Z,27.39
2018-05-21T14:49:51.581Z,27.41
2018-05-21T14:52:18.961Z,27.46
2018-05-21T14:54:46.340Z,27.38
2018-05-21T14:57:13.779Z,27.47
2018-05-21T14:59:41.180Z,27.30
2018-05-21T15:02:08.600Z,27.55
2018-05-21T15:04:35.967Z,27.83
2018-05-21T15:07:03.362Z,27.80
2018-05-21T15:09:30.751Z,27.27
2018-05-21T15:11:58.127Z,27.20
2018-05-21T15:14:25.511Z,27.14
2018-05-21T15:16:52.915Z,27.39
2018-05-21T15:19:20.960Z,27.69
2018-05-21T15:21:48.417Z,27.71
2018-05-21T15:24:15.805Z,27.72
2018-05-21T15:26:43.197Z,27.91
2018-05-21T15:29:11.303Z,27.61
2018-05-21T15:31:38.707Z,27.60
2018-05-21T15:34:06.121Z,27.54
2018-05-21T15:36:33.556Z,27.56
2018-05-21T15:39:01.508Z,27.41
2018-05-21T15:41:28.900Z,27.56
2018-05-21T15:43:56.321Z,27.70
2018-05-21T15:46:23.740Z,27.75
2018-05-21T15:48:51.146Z,27.79
2018-05-21T15:51:18.560Z,27.64
2018-05-21T15:53:45.963Z,27.62
2018-05-21T15:56:13.351Z,27.33
2018-05-21T15:58:40.747Z,27.66
2018-05-21T16:01:08.345Z,27.46
2018-05-21T16:03:35.719Z,27.54
2018-05-21T16:06:03.111Z,27.68
2018-05-21T16:08:30.505Z,28.04
2018-05-21T16:10:57.877Z,28.16
2018-05-21T16:13:25.272Z,28.12
2018-05-21T16:15:52.670Z,28.10
2018-05-21T16:18:20.050Z,27.97
2018-05-21T16:20:47.438Z,28.22
2018-05-21T16:23:15.658Z,28.36
2018-05-21T16:25:43.000Z,28.32
2018-05-21T16:28:10.421Z,28.58
2018-05-21T16:30:37.822Z,28.59
2018-05-21T16:33:05.205Z,28.39
2018-05-21T16:35:32.818Z,28.45
2018-05-21T16:38:00.395Z,28.60
2018-05-21T16:40:27.800Z,28.44
2018-05-21T16:42:56.071Z,28.11
2018-05-21T16:45:23.480Z,28.47
2018-05-21T16:47:50.895Z,27.50
2018-05-21T16:50:18.275Z,27.99
2018-05-21T16:52:45.663Z,27.64
2018-05-21T16:55:13.073Z,27.90
2018-05-21T16:57:40.465Z,28.01
2018-05-21T17:00:07.855Z,28.42
2018-05-21T17:02:35.273Z,28.14
2018-05-21T17:05:02.665Z,28.81
2018-05-21T17:07:30.057Z,29.13
2018-05-21T17:09:57.494Z,29.73
2018-05-21T17:12:24.897Z,30.10
2018-05-21T17:14:52.322Z,30.28
2018-05-21T17:17:19.813Z,30.30
2018-05-21T17:19:47.923Z,30.08
2018-05-21T17:22:15.837Z,29.89
2018-05-21T17:24:43.270Z,29.48
2018-05-21T17:27:10.667Z,29.21
2018-05-21T17:29:38.047Z,28.94
2018-05-21T17:32:05.457Z,28.78
2018-05-21T17:34:34.828Z,28.82
2018-05-21T17:37:02.216Z,28.85
2018-05-21T17:39:30.981Z,29.14
2018-05-21T17:41:58.360Z,28.69
2018-05-21T17:44:26.666Z,28.87
2018-05-21T17:46:54.047Z,28.22
2018-05-21T17:49:21.488Z,27.81
2018-05-21T17:51:48.928Z,27.63
2018-05-21T17:54:16.254Z,27.38
2018-05-21T17:56:43.635Z,27.19
2018-05-21T17:59:11.094Z,27.06
2018-05-21T18:01:38.847Z,27.05
2018-05-21T18:04:06.261Z,26.98
2018-05-21T18:06:33.652Z,26.60
2018-05-21T18:09:01.047Z,26.55
2018-05-21T18:11:28.442Z,26.31
2018-05-21T18:13:55.817Z,26.15
2018-05-21T18:16:23.223Z,25.94
2018-05-21T18:18:50.624Z,25.83
2018-05-21T18:21:18.109Z,25.66
2018-05-21T18:23:45.437Z,25.60
2018-05-21T18:26:12.828Z,25.50
2018-05-21T18:28:40.220Z,25.38
2018-05-21T18:31:07.616Z,25.20
2018-05-21T18:33:35.035Z,25.18
2018-05-21T18:36:03.273Z,24.92
2018-05-21T18:38:30.640Z,24.61
2018-05-21T18:40:58.512Z,24.59
2018-05-21T18:43:25.917Z,24.55
2018-05-21T18:45:53.560Z,24.43
2018-05-21T18:48:21.253Z,24.11
2018-05-21T18:50:48.630Z,23.87
2018-05-21T18:53:16.020Z,23.93
2018-05-21T18:55:43.439Z,23.88
2018-05-21T18:58:10.829Z,23.87
2018-05-21T19:00:38.234Z,23.83
2018-05-21T19:03:05.653Z,23.68
2018-05-21T19:05:33.062Z,23.29
2018-05-21T19:08:00.479Z,23.30
2018-05-21T19:10:29.663Z,22.88
2018-05-21T19:12:57.076Z,22.86
2018-05-21T19:15:25.007Z,22.49
2018-05-21T19:17:52.399Z,22.26
2018-05-21T19:20:19.847Z,22.37
2018-05-21T19:22:47.278Z,22.44
2018-05-21T19:25:14.684Z,21.84
2018-05-21T19:27:42.074Z,21.49
2018-05-21T19:30:09.489Z,21.45
2018-05-21T19:32:36.898Z,21.44
2018-05-21T19:35:04.374Z,21.50
2018-05-21T19:37:31.784Z,21.20
2018-05-21T19:40:00.588Z,21.32
2018-05-21T19:42:28.053Z,21.38
2018-05-21T19:44:56.496Z,21.34
2018-05-21T19:47:23.924Z,21.30
2018-05-21T19:49:51.321Z,21.23
2018-05-21T19:52:18.728Z,21.23
2018-05-21T19:54:46.155Z,21.11
2018-05-21T19:57:13.563Z,20.98
2018-05-21T19:59:40.953Z,20.74
2018-05-21T20:02:08.384Z,20.77
2018-05-21T20:04:36.341Z,20.72
2018-05-21T20:07:03.746Z,20.53
2018-05-21T20:09:31.222Z,20.54
2018-05-21T20:11:58.613Z,20.30
2018-05-21T20:14:26.018Z,20.33
2018-05-21T20:16:53.409Z,20.16
2018-05-21T20:19:20.810Z,20.14
2018-05-21T20:21:48.200Z,20.18
2018-05-21T20:24:15.593Z,20.18
2018-05-21T20:26:43.948Z,20.12
2018-05-21T20:29:11.423Z,20.14
2018-05-21T20:31:38.848Z,20.09
2018-05-21T20:34:06.275Z,20.19
2018-05-21T20:36:33.664Z,20.11
2018-05-21T20:39:01.089Z,20.13
2018-05-21T20:41:28.472Z,20.12
2018-05-21T20:43:55.886Z,20.17
2018-05-21T20:46:23.289Z,20.33
2018-05-21T20:48:51.407Z,20.17
2018-05-21T20:51:18.808Z,20.24
2018-05-21T20:53:46.261Z,20.77
2018-05-21T20:56:13.670Z,20.97
2018-05-21T20:58:41.070Z,21.10
2018-05-21T21:01:08.478Z,21.27
2018-05-21T21:03:35.881Z,21.33
2018-05-21T21:06:03.920Z,21.33
2018-05-21T21:08:31.322Z,21.36
2018-05-21T21:10:58.752Z,21.41
2018-05-21T21:13:26.174Z,21.45
2018-05-21T21:15:53.575Z,21.52
2018-05-21T21:18:20.971Z,21.50
2018-05-21T21:20:50.011Z,21.44
2018-05-21T21:23:17.435Z,21.41
2018-05-21T21:25:44.844Z,21.45
2018-05-21T21:28:12.247Z,21.40
2018-05-21T21:30:39.666Z,21.38
2018-05-21T21:33:07.057Z,21.38
2018-05-21T21:35:34.472Z,21.40
2018-05-21T21:38:01.849Z,21.32
2018-05-21T21:40:29.244Z,21.29
2018-05-21T21:42:56.653Z,21.25
2018-05-21T21:45:24.045Z,21.21
2018-05-21T21:47:51.431Z,21.29
2018-05-21T21:50:18.884Z,21.23
2018-05-21T21:52:46.288Z,21.20
2018-05-21T21:55:13.693Z,21.09
2018-05-21T21:57:41.083Z,21.17
2018-05-21T22:00:08.503Z,21.14
2018-05-21T22:02:36.358Z,21.03
2018-05-21T22:05:04.426Z,20.97
2018-05-21T22:07:31.838Z,21.15
2018-05-21T22:09:59.232Z,21.08
2018-05-21T22:12:27.383Z,21.11
2018-05-21T22:14:54.768Z,21.07
2018-05-21T22:17:22.629Z,21.00
2018-05-21T22:19:50.973Z,20.92
2018-05-21T22:22:18.385Z,20.88
2018-05-21T22:24:45.790Z,20.89
2018-05-21T22:27:13.185Z,20.83
2018-05-21T22:29:44.052Z,20.81
2018-05-21T22:32:11.483Z,20.85
2018-05-21T22:34:38.879Z,20.79
2018-05-21T22:37:13.587Z,20.65
2018-05-21T22:39:40.990Z,20.67
2018-05-21T22:42:08.403Z,20.64
2018-05-21T22:44:44.103Z,20.57
2018-05-21T22:47:11.550Z,20.61
2018-05-21T22:49:38.950Z,20.59
2018-05-21T22:52:06.356Z,20.48
2018-05-21T22:54:35.559Z,20.42
2018-05-21T22:57:07.762Z,20.37
2018-05-21T22:59:36.484Z,20.44
2018-05-21T23:04:42.220Z,20.30
2018-05-21T23:07:09.831Z,20.34
2018-05-21T23:09:38.069Z,20.28
2018-05-21T23:12:14.201Z,20.19
2018-05-21T23:17:18.573Z,20.17
2018-05-21T23:19:52.676Z,20.10
2018-05-21T23:22:21.498Z,20.13
2018-05-21T23:24:59.447Z,20.11
2018-05-21T23:27:28.764Z,20.03
2018-05-21T23:29:56.419Z,20.06
2018-05-21T23:32:26.361Z,19.97
2018-05-21T23:34:56.522Z,19.95
2018-05-21T23:37:34.862Z,19.92
2018-05-21T23:40:04.150Z,19.88
2018-05-21T23:42:36.037Z,19.82
2018-05-21T23:45:04.517Z,19.88
2018-05-21T23:47:34.619Z,19.82
2018-05-21T23:50:12.955Z,19.67
2018-05-21T23:52:42.477Z,19.65
2018-05-21T23:55:12.215Z,19.65
2018-05-21T23:57:43.026Z,19.65
